Aviation Digital Data Service (ADDS)

Output produced by METARs form (0450 UTC 24 January 2019)
found at http://www.aviationweather.gov/metar/data/
 
METAR text: KNKT 240121Z 16011KT 2SM RA BR FEW007 BKN027 OVC037 17/16 A3012 RMK SFC VIS 3 P0006 T01670161
Conditions at: KNKT (CHERRY POINT , NC, US) observed 0121 UTC 24 January 2019
Temperature: 16.7°C (62°F)
Dewpoint: 16.1°C (61°F) [RH = 96%]
Pressure (altimeter): 30.12 inches Hg (1020.1 mb)
Winds: from the SSE (160 degrees) at 13 MPH (11 knots; 5.7 m/s)
Visibility: 2.00 miles (3.22 km)
Ceiling: 2700 feet AGL
Clouds: few clouds at 700 feet AGL
broken clouds at 2700 feet AGL
overcast cloud deck at 3700 feet AGL
Weather: RA BR  (moderate rain, mist)

METAR text: KNKT 240102Z 18010KT 2SM RA BR FEW015 BKN029 OVC065 16/16 A3014 RMK SFC VIS 3 P0001 T01610161
Conditions at: KNKT (CHERRY POINT , NC, US) observed 0102 UTC 24 January 2019
Temperature: 16.1°C (61°F)
Dewpoint: 16.1°C (61°F) [RH = 100%]
Pressure (altimeter): 30.14 inches Hg (1020.7 mb)
Winds: from the S (180 degrees) at 12 MPH (10 knots; 5.1 m/s)
Visibility: 2.00 miles (3.22 km)
Ceiling: 2900 feet AGL
Clouds: few clouds at 1500 feet AGL
broken clouds at 2900 feet AGL
overcast cloud deck at 6500 feet AGL
Weather: RA BR  (moderate rain, mist)

METAR text: KNKT 240054Z 16012G19KT 3SM RA BR FEW031 BKN041 OVC065 16/16 A3014 RMK RAB2355 SLP202 P0005 T01610156
Conditions at: KNKT (CHERRY POINT , NC, US) observed 0054 UTC 24 January 2019
Temperature: 16.1°C (61°F)
Dewpoint: 15.6°C (60°F) [RH = 97%]
Pressure (altimeter): 30.14 inches Hg (1020.7 mb)
[Sea-level pressure: 1020.2 mb]
Winds: from the SSE (160 degrees) at 14 MPH (12 knots; 6.2 m/s)
gusting to 22 MPH (19 knots; 9.8 m/s)
Visibility: 3 miles ( 5 km)
Ceiling: 4100 feet AGL
Clouds: few clouds at 3100 feet AGL
broken clouds at 4100 feet AGL
overcast cloud deck at 6500 feet AGL
Weather: RA BR  (moderate rain, mist)

METAR text: KNKT 240042Z 16011G20KT 3SM RA BR FEW025 BKN034 OVC060 16/16 A3014 RMK RAB2355 P0005 T01610161
Conditions at: KNKT (CHERRY POINT , NC, US) observed 0042 UTC 24 January 2019
Temperature: 16.1°C (61°F)
Dewpoint: 16.1°C (61°F) [RH = 100%]
Pressure (altimeter): 30.14 inches Hg (1020.7 mb)
Winds: from the SSE (160 degrees) at 13 MPH (11 knots; 5.7 m/s)
gusting to 23 MPH (20 knots; 10.3 m/s)
Visibility: 3 miles ( 5 km)
Ceiling: 3400 feet AGL
Clouds: few clouds at 2500 feet AGL
broken clouds at 3400 feet AGL
overcast cloud deck at 6000 feet AGL
Weather: RA BR  (moderate rain, mist)

METAR text: KNKT 240031Z 17011KT 2 1/2SM RA BR FEW006 BKN033 OVC060 16/16 A3015 RMK RAB2355 P0004 T01610161
Conditions at: KNKT (CHERRY POINT , NC, US) observed 0031 UTC 24 January 2019
Temperature: 16.1°C (61°F)
Dewpoint: 16.1°C (61°F) [RH = 100%]
Pressure (altimeter): 30.15 inches Hg (1021.1 mb)
Winds: from the S (170 degrees) at 13 MPH (11 knots; 5.7 m/s)
Visibility: 2.50 miles (4.02 km)
Ceiling: 3300 feet AGL
Clouds: few clouds at 600 feet AGL
broken clouds at 3300 feet AGL
overcast cloud deck at 6000 feet AGL
Weather: RA BR  (moderate rain, mist)

METAR text: KNKT 240016Z 18009KT 3SM -RA BR FEW006 BKN025 OVC030 16/16 A3017 RMK RAB2355 P0002 T01610156
Conditions at: KNKT (CHERRY POINT , NC, US) observed 0016 UTC 24 January 2019
Temperature: 16.1°C (61°F)
Dewpoint: 15.6°C (60°F) [RH = 97%]
Pressure (altimeter): 30.17 inches Hg (1021.8 mb)
Winds: from the S (180 degrees) at 10 MPH (9 knots; 4.6 m/s)
Visibility: 3 miles ( 5 km)
Ceiling: 2500 feet AGL
Clouds: few clouds at 600 feet AGL
broken clouds at 2500 feet AGL
overcast cloud deck at 3000 feet AGL
Weather: -RA BR  (light rain, mist)

METAR text: KNKT 240010Z 17011G18KT 2 1/2SM -RA BR FEW012 BKN027 OVC032 16/16 A3017 RMK VIS 2V3 RAB2355 P0002 T01610156
Conditions at: KNKT (CHERRY POINT , NC, US) observed 0010 UTC 24 January 2019
Temperature: 16.1°C (61°F)
Dewpoint: 15.6°C (60°F) [RH = 97%]
Pressure (altimeter): 30.17 inches Hg (1021.8 mb)
Winds: from the S (170 degrees) at 13 MPH (11 knots; 5.7 m/s)
gusting to 21 MPH (18 knots; 9.3 m/s)
Visibility: 2.50 miles (4.02 km)
Ceiling: 2700 feet AGL
Clouds: few clouds at 1200 feet AGL
broken clouds at 2700 feet AGL
overcast cloud deck at 3200 feet AGL
Weather: -RA BR  (light rain, mist)

METAR text: KNKT 232154Z 16012KT 10SM BKN080 17/13 A3020 RMK SLP222 T01720133
Conditions at: KNKT (CHERRY POINT , NC, US) observed 2154 UTC 23 January 2019
Temperature: 17.2°C (63°F)
Dewpoint: 13.3°C (56°F) [RH = 78%]
Pressure (altimeter): 30.20 inches Hg (1022.8 mb)
[Sea-level pressure: 1022.2 mb]
Winds: from the SSE (160 degrees) at 14 MPH (12 knots; 6.2 m/s)
Visibility: 10 or more miles (16+ km)
Ceiling: 8000 feet AGL
Clouds: broken clouds at 8000 feet AGL
Weather: no significant weather observed at this time

METAR text: KNKT 232054Z 16012G20KT 10SM FEW028 BKN060 OVC075 17/14 A3024 RMK SLP236 T01670139 58034
Conditions at: KNKT (CHERRY POINT , NC, US) observed 2054 UTC 23 January 2019
Temperature: 16.7°C (62°F)
Dewpoint: 13.9°C (57°F) [RH = 84%]
Pressure (altimeter): 30.24 inches Hg (1024.1 mb)
[Sea-level pressure: 1023.6 mb]
Winds: from the SSE (160 degrees) at 14 MPH (12 knots; 6.2 m/s)
gusting to 23 MPH (20 knots; 10.3 m/s)
Visibility: 10 or more miles (16+ km)
Ceiling: 6000 feet AGL
Clouds: few clouds at 2800 feet AGL
broken clouds at 6000 feet AGL
overcast cloud deck at 7500 feet AGL
Weather: no significant weather observed at this time

METAR text: KNKT 231954Z 16009KT 10SM FEW049 OVC075 17/14 A3028 RMK SLP249 T01720144
Conditions at: KNKT (CHERRY POINT , NC, US) observed 1954 UTC 23 January 2019
Temperature: 17.2°C (63°F)
Dewpoint: 14.4°C (58°F) [RH = 84%]
Pressure (altimeter): 30.28 inches Hg (1025.5 mb)
[Sea-level pressure: 1024.9 mb]
Winds: from the SSE (160 degrees) at 10 MPH (9 knots; 4.6 m/s)
Visibility: 10 or more miles (16+ km)
Ceiling: 7500 feet AGL
Clouds: few clouds at 4900 feet AGL
overcast cloud deck at 7500 feet AGL
Weather: no significant weather observed at this time

METAR text: KNKT 231907Z 16012KT 2SM FEW014 BKN039 OVC050 17/12 A3031 RMK SFC VIS 4 T01720122
Conditions at: KNKT (CHERRY POINT , NC, US) observed 1907 UTC 23 January 2019
Temperature: 17.2°C (63°F)
Dewpoint: 12.2°C (54°F) [RH = 72%]
Pressure (altimeter): 30.31 inches Hg (1026.5 mb)
Winds: from the SSE (160 degrees) at 14 MPH (12 knots; 6.2 m/s)
Visibility: 2.00 miles (3.22 km)
Ceiling: 3900 feet AGL
Clouds: few clouds at 1400 feet AGL
broken clouds at 3900 feet AGL
overcast cloud deck at 5000 feet AGL
Weather: no significant weather observed at this time

METAR text: KNKT 231854Z 16009G20KT 10SM BKN041 OVC050 18/12 A3031 RMK SLP260 T01780117
Conditions at: KNKT (CHERRY POINT , NC, US) observed 1854 UTC 23 January 2019
Temperature: 17.8°C (64°F)
Dewpoint: 11.7°C (53°F) [RH = 67%]
Pressure (altimeter): 30.31 inches Hg (1026.5 mb)
[Sea-level pressure: 1026.0 mb]
Winds: from the SSE (160 degrees) at 10 MPH (9 knots; 4.6 m/s)
gusting to 23 MPH (20 knots; 10.3 m/s)
Visibility: 10 or more miles (16+ km)
Ceiling: 4100 feet AGL
Clouds: broken clouds at 4100 feet AGL
overcast cloud deck at 5000 feet AGL
Weather: no significant weather observed at this time

METAR text: KNKT 231754Z 16012G20KT 10SM BKN070 19/11 A3034 RMK SLP269 T01890111 10189 20033 58026
Conditions at: KNKT (CHERRY POINT , NC, US) observed 1754 UTC 23 January 2019
Temperature: 18.9°C (66°F)
Dewpoint: 11.1°C (52°F) [RH = 61%]
Pressure (altimeter): 30.34 inches Hg (1027.5 mb)
[Sea-level pressure: 1026.9 mb]
Winds: from the SSE (160 degrees) at 14 MPH (12 knots; 6.2 m/s)
gusting to 23 MPH (20 knots; 10.3 m/s)
Visibility: 10 or more miles (16+ km)
Ceiling: 7000 feet AGL
Clouds: broken clouds at 7000 feet AGL
Weather: no significant weather observed at this time

METAR text: KNKT 231654Z 16011KT 10SM OVC065 17/11 A3038 RMK A02 SLP284 T01720106
Conditions at: KNKT (CHERRY POINT , NC, US) observed 1654 UTC 23 January 2019
Temperature: 17.2°C (63°F)
Dewpoint: 10.6°C (51°F) [RH = 65%]
Pressure (altimeter): 30.38 inches Hg (1028.9 mb)
[Sea-level pressure: 1028.4 mb]
Winds: from the SSE (160 degrees) at 13 MPH (11 knots; 5.7 m/s)
Visibility: 10 or more miles (16+ km)
Ceiling: 6500 feet AGL
Clouds: overcast cloud deck at 6500 feet AGL
Weather: no significant weather observed at this time

METAR text: KNKT 231554Z 17011G17KT 7SM BKN075 17/10 A3040 RMK SLP290 T01670100
Conditions at: KNKT (CHERRY POINT , NC, US) observed 1554 UTC 23 January 2019
Temperature: 16.7°C (62°F)
Dewpoint: 10.0°C (50°F) [RH = 65%]
Pressure (altimeter): 30.40 inches Hg (1029.5 mb)
[Sea-level pressure: 1029.0 mb]
Winds: from the S (170 degrees) at 13 MPH (11 knots; 5.7 m/s)
gusting to 20 MPH (17 knots; 8.7 m/s)
Visibility: 7 miles (11 km)
Ceiling: 7500 feet AGL
Clouds: broken clouds at 7500 feet AGL
Weather: no significant weather observed at this time

METAR text: KNKT 231454Z 15008KT 7SM BKN070 15/09 A3044 RMK SLP295 T01500094
Conditions at: KNKT (CHERRY POINT , NC, US) observed 1454 UTC 23 January 2019
Temperature: 15.0°C (59°F)
Dewpoint: 9.4°C (49°F) [RH = 69%]
Pressure (altimeter): 30.44 inches Hg (1030.9 mb)
[Sea-level pressure: 1029.5 mb]
Winds: from the SSE (150 degrees) at 9 MPH (8 knots; 4.1 m/s)
Visibility: 7 miles (11 km)
Ceiling: 7000 feet AGL
Clouds: broken clouds at 7000 feet AGL
Weather: no significant weather observed at this time

METAR text: KNKT 231354Z 12007KT 10SM BKN065 09/08 A3044 RMK A02 SLP302 T00940083
Conditions at: KNKT (CHERRY POINT , NC, US) observed 1354 UTC 23 January 2019
Temperature: 9.4°C (49°F)
Dewpoint: 8.3°C (47°F) [RH = 93%]
Pressure (altimeter): 30.44 inches Hg (1030.9 mb)
[Sea-level pressure: 1030.2 mb]
Winds: from the ESE (120 degrees) at 8 MPH (7 knots; 3.6 m/s)
Visibility: 10 or more miles (16+ km)
Ceiling: 6500 feet AGL
Clouds: broken clouds at 6500 feet AGL
Weather: no significant weather observed at this time

METAR text: KNKT 231254Z 16004KT 10SM BKN065 07/06 A3046 RMK AO2 SLP310 T00670061
Conditions at: KNKT (CHERRY POINT , NC, US) observed 1254 UTC 23 January 2019
Temperature: 6.7°C (44°F)
Dewpoint: 6.1°C (43°F) [RH = 96%]
Pressure (altimeter): 30.46 inches Hg (1031.6 mb)
[Sea-level pressure: 1031.0 mb]
Winds: from the SSE (160 degrees) at 5 MPH (4 knots; 2.1 m/s)
Visibility: 10 or more miles (16+ km)
Ceiling: 6500 feet AGL
Clouds: broken clouds at 6500 feet AGL
Weather: no significant weather observed at this time

METAR text: KNKT 231154Z 14005KT 10SM CLR 04/04 A3047 RMK AO2 SLP313 T00390039 10044 20006 56016
Conditions at: KNKT (CHERRY POINT , NC, US) observed 1154 UTC 23 January 2019
Temperature: 3.9°C (39°F)
Dewpoint: 3.9°C (39°F) [RH = 100%]
Pressure (altimeter): 30.47 inches Hg (1031.9 mb)
[Sea-level pressure: 1031.3 mb]
Winds: from the SE (140 degrees) at 6 MPH (5 knots; 2.6 m/s)
Visibility: 10 or more miles (16+ km)
Ceiling: at least 12,000 feet AGL
Clouds: sky clear below 12,000 feet AGL
Weather: no significant weather observed at this time

METAR text: KNKT 231054Z 13006KT 8SM CLR 04/04 3047 RMK AO2 SLP314 T00440044
Conditions at: KNKT (CHERRY POINT , NC, US) observed 1054 UTC 23 January 2019
Temperature: 4.4°C (40°F)
Dewpoint: 4.4°C (40°F) [RH = 100%]
Pressure (altimeter): missing
Winds: from the SE (130 degrees) at 7 MPH (6 knots; 3.1 m/s)
Visibility: 8 miles (13 km)
Ceiling: at least 12,000 feet AGL
Clouds: sky clear below 12,000 feet AGL
Weather: no significant weather observed at this time

METAR text: KNKT 231045Z 12006KT 6SM FEW002 04/04 A3047 RMK AO2 T00390039
Conditions at: KNKT (CHERRY POINT , NC, US) observed 1045 UTC 23 January 2019
Temperature: 3.9°C (39°F)
Dewpoint: 3.9°C (39°F) [RH = 100%]
Pressure (altimeter): 30.47 inches Hg (1031.9 mb)
Winds: from the ESE (120 degrees) at 7 MPH (6 knots; 3.1 m/s)
Visibility: 6 miles (10 km)
Ceiling: at least 12,000 feet AGL
Clouds: few clouds at 200 feet AGL
Weather: no significant weather observed at this time

METAR text: KNKT 231037Z 12006KT 2SM SCT002 04/04 A3047 RMK AO2 TWR VIS 10 T00390039
Conditions at: KNKT (CHERRY POINT , NC, US) observed 1037 UTC 23 January 2019
Temperature: 3.9°C (39°F)
Dewpoint: 3.9°C (39°F) [RH = 100%]
Pressure (altimeter): 30.47 inches Hg (1031.9 mb)
Winds: from the ESE (120 degrees) at 7 MPH (6 knots; 3.1 m/s)
Visibility: 2.00 miles (3.22 km)
Ceiling: at least 12,000 feet AGL
Clouds: scattered clouds at 200 feet AGL
Weather: no significant weather observed at this time

METAR text: KNKT 231031Z 12006KT 1SM VV002 04/04 A3048 RMK AO2 TWR VIS 10 T00390039
Conditions at: KNKT (CHERRY POINT , NC, US) observed 1031 UTC 23 January 2019
Temperature: 3.9°C (39°F)
Dewpoint: 3.9°C (39°F) [RH = 100%]
Pressure (altimeter): 30.48 inches Hg (1032.3 mb)
Winds: from the ESE (120 degrees) at 7 MPH (6 knots; 3.1 m/s)
Visibility: 1.00 miles (1.61 km)
Ceiling: indefinite ceiling with vertical visibility of 200 feet AGL
Clouds: obscured sky
Weather: no significant weather observed at this time

METAR text: KNKT 231003Z 12008KT 1/2SM VV002 03/03 A3048 RMK AO2 TWR VIS 10 100280028
Conditions at: KNKT (CHERRY POINT , NC, US) observed 1003 UTC 23 January 2019
Temperature: 3.0°C (37°F)
Dewpoint: 3.0°C (37°F) [RH = 100%]
Pressure (altimeter): 30.48 inches Hg (1032.3 mb)
Winds: from the ESE (120 degrees) at 9 MPH (8 knots; 4.1 m/s)
Visibility: 0.50 miles (0.80 km)
Ceiling: indefinite ceiling with vertical visibility of 200 feet AGL
Clouds: obscured sky
Weather: no significant weather observed at this time

METAR text: KNKT 230954Z 11008KT 3/4SM BKN002 03/03 A3049 RMK AO2 TWR VIS 10 SLP319 T00280028
Conditions at: KNKT (CHERRY POINT , NC, US) observed 0954 UTC 23 January 2019
Temperature: 2.8°C (37°F)
Dewpoint: 2.8°C (37°F) [RH = 100%]
Pressure (altimeter): 30.49 inches Hg (1032.6 mb)
[Sea-level pressure: 1031.9 mb]
Winds: from the ESE (110 degrees) at 9 MPH (8 knots; 4.1 m/s)
Visibility: 0.75 miles (1.21 km)
Ceiling: 200 feet AGL
Clouds: broken clouds at 200 feet AGL
Weather: no significant weather observed at this time

METAR text: KNKT 230941Z 12007KT 1/2SM VV002 02/02 A3049 AO2 TWR VIS 10 T00170017
Conditions at: KNKT (CHERRY POINT , NC, US) observed 0941 UTC 23 January 2019
Temperature: 1.7°C (35°F)
Dewpoint: 1.7°C (35°F) [RH = 100%]
Pressure (altimeter): 30.49 inches Hg (1032.6 mb)
Winds: from the ESE (120 degrees) at 8 MPH (7 knots; 3.6 m/s)
Visibility: 0.50 miles (0.80 km)
Ceiling: indefinite ceiling with vertical visibility of 200 feet AGL
Clouds: obscured sky
Weather: no significant weather observed at this time

METAR text: KNKT 230934Z 11006KT 3/4SM VV002 02/02 A3049 RMK AO2 TWR VIS 10 T00170017
Conditions at: KNKT (CHERRY POINT , NC, US) observed 0934 UTC 23 January 2019
Temperature: 1.7°C (35°F)
Dewpoint: 1.7°C (35°F) [RH = 100%]
Pressure (altimeter): 30.49 inches Hg (1032.6 mb)
Winds: from the ESE (110 degrees) at 7 MPH (6 knots; 3.1 m/s)
Visibility: 0.75 miles (1.21 km)
Ceiling: indefinite ceiling with vertical visibility of 200 feet AGL
Clouds: obscured sky
Weather: no significant weather observed at this time

METAR text: KNKT 230926Z 10005KT 1 1/2SM FEW065 02/02 A3050 RMK AO2 TWR VIS 10 T00220022
Conditions at: KNKT (CHERRY POINT , NC, US) observed 0926 UTC 23 January 2019
Temperature: 2.2°C (36°F)
Dewpoint: 2.2°C (36°F) [RH = 100%]
Pressure (altimeter): 30.50 inches Hg (1032.9 mb)
Winds: from the E (100 degrees) at 6 MPH (5 knots; 2.6 m/s)
Visibility: 1.50 miles (2.41 km)
Ceiling: at least 12,000 feet AGL
Clouds: few clouds at 6500 feet AGL
Weather: no significant weather observed at this time

METAR text: KNKT 230854Z 00000KT 8SM SCT065 02/01 A3051 RMK AO2 SLP329 T00170011 58021
Conditions at: KNKT (CHERRY POINT , NC, US) observed 0854 UTC 23 January 2019
Temperature: 1.7°C (35°F)
Dewpoint: 1.1°C (34°F) [RH = 96%]
Pressure (altimeter): 30.51 inches Hg (1033.3 mb)
[Sea-level pressure: 1032.9 mb]
Winds: calm
Visibility: 8 miles (13 km)
Ceiling: at least 12,000 feet AGL
Clouds: scattered clouds at 6500 feet AGL
Weather: no significant weather observed at this time

METAR text: KNKT 230754Z 08003KT 10SM CLR 01/00 A3054 RMK AO2 SLP338 T00110000
Conditions at: KNKT (CHERRY POINT , NC, US) observed 0754 UTC 23 January 2019
Temperature: 1.1°C (34°F)
Dewpoint: 0.0°C (32°F) [RH = 92%]
Pressure (altimeter): 30.54 inches Hg (1034.3 mb)
[Sea-level pressure: 1033.8 mb]
Winds: from the E (80 degrees) at 3 MPH (3 knots; 1.5 m/s)
Visibility: 10 or more miles (16+ km)
Ceiling: at least 12,000 feet AGL
Clouds: sky clear below 12,000 feet AGL
Weather: no significant weather observed at this time

METAR text: KNKT 230654Z 10004KT 10SM CLR 01/00 A3056 RMK AO2 SLP343 T00110000
Conditions at: KNKT (CHERRY POINT , NC, US) observed 0654 UTC 23 January 2019
Temperature: 1.1°C (34°F)
Dewpoint: 0.0°C (32°F) [RH = 92%]
Pressure (altimeter): 30.56 inches Hg (1035.0 mb)
[Sea-level pressure: 1034.3 mb]
Winds: from the E (100 degrees) at 5 MPH (4 knots; 2.1 m/s)
Visibility: 10 or more miles (16+ km)
Ceiling: at least 12,000 feet AGL
Clouds: sky clear below 12,000 feet AGL
Weather: no significant weather observed at this time

METAR text: KNKT 230554Z 08003KT 10SM CLR 00/M01 A3058 RMK AO2 SLP350 T00001011 10011 21017 56019
Conditions at: KNKT (CHERRY POINT , NC, US) observed 0554 UTC 23 January 2019
Temperature: 0.0°C (32°F)
Dewpoint: -1.1°C (30°F) [RH = 92%]
Pressure (altimeter): 30.58 inches Hg (1035.6 mb)
[Sea-level pressure: 1035.0 mb]
Winds: from the E (80 degrees) at 3 MPH (3 knots; 1.5 m/s)
Visibility: 10 or more miles (16+ km)
Ceiling: at least 12,000 feet AGL
Clouds: sky clear below 12,000 feet AGL
Weather: no significant weather observed at this time

METAR text: KNKT 230454Z 07003KT 7SM SKC 00/M02 A3059 RMK SLP355 T00001017 400501039
Conditions at: KNKT (CHERRY POINT , NC, US) observed 0454 UTC 23 January 2019
Temperature: 0.0°C (32°F)
Dewpoint: -1.7°C (29°F) [RH = 88%]
Pressure (altimeter): 30.59 inches Hg (1036.0 mb)
[Sea-level pressure: 1035.5 mb]
Winds: from the ENE (70 degrees) at 3 MPH (3 knots; 1.5 m/s)
Visibility: 7 miles (11 km)
Ceiling: at least 12,000 feet AGL
Clouds: clear skies
Weather: no significant weather observed at this time

METAR text: KNKT 230335Z 10004KT 7SM SKC M01/M03 A3063 RMK SLP369 T10061033 58014
Conditions at: KNKT (CHERRY POINT , NC, US) observed 0335 UTC 23 January 2019
Temperature: -0.6°C (31°F)
Dewpoint: -3.3°C (26°F) [RH = 82%]
Pressure (altimeter): 30.63 inches Hg (1037.3 mb)
[Sea-level pressure: 1036.9 mb]
Winds: from the E (100 degrees) at 5 MPH (4 knots; 2.1 m/s)
Visibility: 7 miles (11 km)
Ceiling: at least 12,000 feet AGL
Clouds: clear skies
Weather: no significant weather observed at this time

METAR text: KNKT 230254Z 10004KT 10SM CLR M01/M03 A3063 RMK AO2 SLP369 T10061033 58014
Conditions at: KNKT (CHERRY POINT , NC, US) observed 0254 UTC 23 January 2019
Temperature: -0.6°C (31°F)
Dewpoint: -3.3°C (26°F) [RH = 82%]
Pressure (altimeter): 30.63 inches Hg (1037.3 mb)
[Sea-level pressure: 1036.9 mb]
Winds: from the E (100 degrees) at 5 MPH (4 knots; 2.1 m/s)
Visibility: 10 or more miles (16+ km)
Ceiling: at least 12,000 feet AGL
Clouds: sky clear below 12,000 feet AGL
Weather: no significant weather observed at this time

METAR text: KNKT 230154Z 12004KT 10SM CLR M01/M04 A3065 RMK AO2 SLP375 T10111044
Conditions at: KNKT (CHERRY POINT , NC, US) observed 0154 UTC 23 January 2019
Temperature: -1.1°C (30°F)
Dewpoint: -4.4°C (24°F) [RH = 78%]
Pressure (altimeter): 30.65 inches Hg (1038.0 mb)
[Sea-level pressure: 1037.5 mb]
Winds: from the ESE (120 degrees) at 5 MPH (4 knots; 2.1 m/s)
Visibility: 10 or more miles (16+ km)
Ceiling: at least 12,000 feet AGL
Clouds: sky clear below 12,000 feet AGL
Weather: no significant weather observed at this time

METAR text: KNKT 230054Z 11004KT 10SM M01/M04 A3067 RMK AO2 SLP380 T10111056
Conditions at: KNKT (CHERRY POINT , NC, US) observed 0054 UTC 23 January 2019
Temperature: -1.1°C (30°F)
Dewpoint: -4.0°C (25°F) [RH = 81%]
Pressure (altimeter): 30.67 inches Hg (1038.7 mb)
[Sea-level pressure: 1038.0 mb]
Winds: from the ESE (110 degrees) at 5 MPH (4 knots; 2.1 m/s)
Visibility: 10 or more miles (16+ km)
Ceiling: unknown
Clouds: missing
Weather: no significant weather observed at this time

METAR text: KNKT 222254Z 07004KT 10SM CLR 01/M06 A3067 RMK AO2 SLP382 T00111061
Conditions at: KNKT (CHERRY POINT , NC, US) observed 2254 UTC 22 January 2019
Temperature: 1.1°C (34°F)
Dewpoint: -6.1°C (21°F) [RH = 59%]
Pressure (altimeter): 30.67 inches Hg (1038.7 mb)
[Sea-level pressure: 1038.2 mb]
Winds: from the ENE (70 degrees) at 5 MPH (4 knots; 2.1 m/s)
Visibility: 10 or more miles (16+ km)
Ceiling: at least 12,000 feet AGL
Clouds: sky clear below 12,000 feet AGL
Weather: no significant weather observed at this time

METAR text: KNKT 222154Z 04006KT 10SM CLR 03/M06 A3067 RMK AO2 SLP381 T00331056
Conditions at: KNKT (CHERRY POINT , NC, US) observed 2154 UTC 22 January 2019
Temperature: 3.3°C (38°F)
Dewpoint: -5.6°C (22°F) [RH = 52%]
Pressure (altimeter): 30.67 inches Hg (1038.7 mb)
[Sea-level pressure: 1038.1 mb]
Winds: from the NE (40 degrees) at 7 MPH (6 knots; 3.1 m/s)
Visibility: 10 or more miles (16+ km)
Ceiling: at least 12,000 feet AGL
Clouds: sky clear below 12,000 feet AGL
Weather: no significant weather observed at this time

METAR text: KNKT 222054Z VRB04KT 10SM CLR 04/M08 A3066 RMK AO2 SLP380 T00441083 56012
Conditions at: KNKT (CHERRY POINT , NC, US) observed 2054 UTC 22 January 2019
Temperature: 4.4°C (40°F)
Dewpoint: -8.3°C (17°F) [RH = 39%]
Pressure (altimeter): 30.66 inches Hg (1038.4 mb)
[Sea-level pressure: 1038.0 mb]
Winds: variable direction winds at 5 MPH (4 knots; 2.1 m/s)
Visibility: 10 or more miles (16+ km)
Ceiling: at least 12,000 feet AGL
Clouds: sky clear below 12,000 feet AGL
Weather: no significant weather observed at this time

METAR text: KNKT 221954Z VRB04KT 10SM CLR 04/M07 A3067 RMK AO2 SLP380 T00441067
Conditions at: KNKT (CHERRY POINT , NC, US) observed 1954 UTC 22 January 2019
Temperature: 4.4°C (40°F)
Dewpoint: -6.7°C (20°F) [RH = 44%]
Pressure (altimeter): 30.67 inches Hg (1038.7 mb)
[Sea-level pressure: 1038.0 mb]
Winds: variable direction winds at 5 MPH (4 knots; 2.1 m/s)
Visibility: 10 or more miles (16+ km)
Ceiling: at least 12,000 feet AGL
Clouds: sky clear below 12,000 feet AGL
Weather: no significant weather observed at this time

METAR text: KNKT 221854Z 02007KT 10SM CLR 04/M08 A3068 RMK AO2 SLP387 T00391083
Conditions at: KNKT (CHERRY POINT , NC, US) observed 1854 UTC 22 January 2019
Temperature: 3.9°C (39°F)
Dewpoint: -8.3°C (17°F) [RH = 40%]
Pressure (altimeter): 30.68 inches Hg (1039.0 mb)
[Sea-level pressure: 1038.7 mb]
Winds: from the NNE (20 degrees) at 8 MPH (7 knots; 3.6 m/s)
Visibility: 10 or more miles (16+ km)
Ceiling: at least 12,000 feet AGL
Clouds: sky clear below 12,000 feet AGL
Weather: no significant weather observed at this time

METAR text: KNKT 221754Z 04008KT 10SM CLR 03/M09 A3070 RMK SLP392 T00331089 10033 21039 58014
Conditions at: KNKT (CHERRY POINT , NC, US) observed 1754 UTC 22 January 2019
Temperature: 3.3°C (38°F)
Dewpoint: -8.9°C (16°F) [RH = 40%]
Pressure (altimeter): 30.70 inches Hg (1039.7 mb)
[Sea-level pressure: 1039.2 mb]
Winds: from the NE (40 degrees) at 9 MPH (8 knots; 4.1 m/s)
Visibility: 10 or more miles (16+ km)
Ceiling: at least 12,000 feet AGL
Clouds: sky clear below 12,000 feet AGL
Weather: no significant weather observed at this time

METAR text: KNKT 221654Z VRB06KT 10SM CLR 02/M09 A3073 RMK AO2 SLP402 T00221094
Conditions at: KNKT (CHERRY POINT , NC, US) observed 1654 UTC 22 January 2019
Temperature: 2.2°C (36°F)
Dewpoint: -9.4°C (15°F) [RH = 42%]
Pressure (altimeter): 30.73 inches Hg (1040.7 mb)
[Sea-level pressure: 1040.2 mb]
Winds: variable direction winds at 7 MPH (6 knots; 3.1 m/s)
Visibility: 10 or more miles (16+ km)
Ceiling: at least 12,000 feet AGL
Clouds: sky clear below 12,000 feet AGL
Weather: no significant weather observed at this time

Forecast for: KNKT (CHERRY POINT , NC, US)
Text: TAF KNKT 2403/2503 15012KT 9999 FEW055 BKN070 QNH2978INS
Forecast period: 0300 to 0900 UTC 24 January 2019
Forecast type: FROM: standard forecast or significant change
Winds: from the SSE (150 degrees) at 14 MPH (12 knots; 6.2 m/s)
Visibility: 6 or more miles 10+ km)
Ceiling: 7000 feet AGL
Clouds: few clouds at 5500 feet AGL
broken clouds at 7000 feet AGL
Weather: no significant weather forecast for this period
Text: BECMG 2409/2411 19015G30KT 4800 SHRA BR SCT008 BKN010 BKN060 QNH2965INS
Forecast period: 0900 to 1900 UTC 24 January 2019
Forecast type: BECOMING: Conditions expected to become as follows by 1100 UTC 24 January 2019
Winds: from the S (190 degrees) at 17 MPH (15 knots; 7.7 m/s)
gusting to 34 MPH (30 knots; 15.4 m/s)
Visibility: 2.98 miles (4.80 km)
Ceiling: 1000 feet AGL
Clouds: scattered clouds at 800 feet AGL
broken clouds at 1000 feet AGL
broken clouds at 6000 feet AGL
Weather: SHRA BR  (rain showers, mist)
Text: FM241900 25010G15KT 9999 SCT008 BKN015 OVC025 QNH2965INS T14/2403Z T19/2417Z
Forecast period: 1900 UTC 24 January 2019 to 0300 UTC 25 January 2019
Forecast type: FROM: standard forecast or significant change
Winds: from the WSW (250 degrees) at 12 MPH (10 knots; 5.1 m/s)
gusting to 17 MPH (15 knots; 7.7 m/s)
Visibility: 6 or more miles 10+ km)
Ceiling: 1500 feet AGL
Clouds: scattered clouds at 800 feet AGL
broken clouds at 1500 feet AGL
overcast cloud deck at 2500 feet AGL
Weather: no significant weather forecast for this period